Strona główna
METAR-TAF:

METAR-TAF

Lotnisko :

Port lotniczy Maradi

Maradi, Niger

Szerokość geograficzna: 13-28N, Długość geograficzna: 007-05E, wysokość: 372 m

Aktualna obserwacja pogody

Raport powstał 57 minut temu, godzina 12:00 UTC
Wiatr 10 kt od południowy zachód
Temperatura 34°C
Wilgotność 50%
Ciśnienie 1013 hPa
Widzialność 10 km lub więcej
Brak chmur poniżej 1500 m i brak chmur cumulonimbus

METAR: DRRM 211200Z 22010KT CAVOK 34/22 Q1013

czas: 13:57 (12:57 UTC)


TAF: brakujący

Obserwacja i prognoza pogody dla ponad 4000 lotnisk (raport METAR i TAF).

Dostępne stacje oznaczono żółtymi i czerwonymi punktami na mapie.

Najedź kursorem aby zobaczyć nazwę stacji.

Kliknij aby zobaczyć obserwacje i prognozy pogody.

Aby zmienić mapę: kliknij na zielony przycisk z czarnym krzyżykiem, aby powiększyć; na zielony przycisk z myślnikiem, aby pomniejszyć; na zielone strzałki, aby przejść do map sąsiednich.


METAR-TAF: